sensor_id;sensor_type;location;lat;lon;timestamp;temperature;humidity
21801;DHT22;11062;51.164;16.924;2023-04-15T00:01:37;30.90;43.00
21801;DHT22;11062;51.164;16.924;2023-04-15T00:04:03;30.90;43.20
21801;DHT22;11062;51.164;16.924;2023-04-15T00:06:29;30.80;43.10
21801;DHT22;11062;51.164;16.924;2023-04-15T00:08:58;31.00;43.10
21801;DHT22;11062;51.164;16.924;2023-04-15T00:11:24;31.00;43.10
21801;DHT22;11062;51.164;16.924;2023-04-15T00:13:50;30.90;43.00
21801;DHT22;11062;51.164;16.924;2023-04-15T00:16:16;30.70;42.90
21801;DHT22;11062;51.164;16.924;2023-04-15T00:18:42;30.60;42.80
21801;DHT22;11062;51.164;16.924;2023-04-15T00:21:07;31.00;43.20
21801;DHT22;11062;51.164;16.924;2023-04-15T00:23:37;31.00;43.10
21801;DHT22;11062;51.164;16.924;2023-04-15T00:26:03;31.00;42.90
21801;DHT22;11062;51.164;16.924;2023-04-15T00:28:32;30.90;43.10
21801;DHT22;11062;51.164;16.924;2023-04-15T00:31:03;31.20;43.10
21801;DHT22;11062;51.164;16.924;2023-04-15T00:33:32;31.10;42.90
21801;DHT22;11062;51.164;16.924;2023-04-15T00:35:58;31.10;42.60
21801;DHT22;11062;51.164;16.924;2023-04-15T00:38:24;31.10;42.80
21801;DHT22;11062;51.164;16.924;2023-04-15T00:40:50;30.80;42.40
21801;DHT22;11062;51.164;16.924;2023-04-15T00:43:16;30.90;42.60
21801;DHT22;11062;51.164;16.924;2023-04-15T00:45:42;31.10;42.60
21801;DHT22;11062;51.164;16.924;2023-04-15T00:48:08;31.10;42.50
21801;DHT22;11062;51.164;16.924;2023-04-15T00:50:34;31.10;42.60
21801;DHT22;11062;51.164;16.924;2023-04-15T00:53:00;31.10;42.30
21801;DHT22;11062;51.164;16.924;2023-04-15T00:55:32;31.00;42.30
21801;DHT22;11062;51.164;16.924;2023-04-15T00:57:58;31.10;42.50
21801;DHT22;11062;51.164;16.924;2023-04-15T01:00:24;31.00;42.30
21801;DHT22;11062;51.164;16.924;2023-04-15T01:02:50;30.80;42.30
21801;DHT22;11062;51.164;16.924;2023-04-15T01:05:16;31.00;42.30
21801;DHT22;11062;51.164;16.924;2023-04-15T01:07:43;31.00;42.40
21801;DHT22;11062;51.164;16.924;2023-04-15T01:10:09;31.10;42.30
21801;DHT22;11062;51.164;16.924;2023-04-15T01:12:38;31.10;42.20
21801;DHT22;11062;51.164;16.924;2023-04-15T01:15:07;31.10;42.10
21801;DHT22;11062;51.164;16.924;2023-04-15T01:17:38;31.00;42.20
21801;DHT22;11062;51.164;16.924;2023-04-15T01:20:04;31.00;42.10
21801;DHT22;11062;51.164;16.924;2023-04-15T01:22:40;31.00;42.20
21801;DHT22;11062;51.164;16.924;2023-04-15T01:25:10;31.00;42.30
21801;DHT22;11062;51.164;16.924;2023-04-15T01:27:38;31.10;42.30
21801;DHT22;11062;51.164;16.924;2023-04-15T01:30:09;31.10;42.30
21801;DHT22;11062;51.164;16.924;2023-04-15T01:32:36;31.00;42.10
21801;DHT22;11062;51.164;16.924;2023-04-15T01:35:02;30.90;42.10
21801;DHT22;11062;51.164;16.924;2023-04-15T01:37:28;31.10;42.00
21801;DHT22;11062;51.164;16.924;2023-04-15T01:39:56;31.20;42.20
21801;DHT22;11062;51.164;16.924;2023-04-15T01:42:25;31.00;42.00
21801;DHT22;11062;51.164;16.924;2023-04-15T01:44:52;31.10;42.00
21801;DHT22;11062;51.164;16.924;2023-04-15T01:47:18;31.00;42.10
21801;DHT22;11062;51.164;16.924;2023-04-15T01:49:51;31.00;42.20
21801;DHT22;11062;51.164;16.924;2023-04-15T01:52:17;31.10;42.10
21801;DHT22;11062;51.164;16.924;2023-04-15T01:54:46;30.90;41.90
21801;DHT22;11062;51.164;16.924;2023-04-15T01:57:12;31.00;41.80
21801;DHT22;11062;51.164;16.924;2023-04-15T01:59:38;31.10;41.90
21801;DHT22;11062;51.164;16.924;2023-04-15T02:02:03;30.90;41.80
21801;DHT22;11062;51.164;16.924;2023-04-15T02:04:30;31.00;41.90
21801;DHT22;11062;51.164;16.924;2023-04-15T02:06:56;31.00;41.90
21801;DHT22;11062;51.164;16.924;2023-04-15T02:09:22;31.00;42.00
21801;DHT22;11062;51.164;16.924;2023-04-15T02:11:47;31.00;41.90
21801;DHT22;11062;51.164;16.924;2023-04-15T02:14:13;31.10;42.00
21801;DHT22;11062;51.164;16.924;2023-04-15T02:16:39;31.10;42.10
21801;DHT22;11062;51.164;16.924;2023-04-15T02:19:05;30.90;41.80
21801;DHT22;11062;51.164;16.924;2023-04-15T02:21:32;31.20;42.10
21801;DHT22;11062;51.164;16.924;2023-04-15T02:23:59;31.10;41.90
21801;DHT22;11062;51.164;16.924;2023-04-15T02:26:29;31.00;42.00
21801;DHT22;11062;51.164;16.924;2023-04-15T02:28:57;30.90;42.20
21801;DHT22;11062;51.164;16.924;2023-04-15T02:31:23;30.90;42.30
21801;DHT22;11062;51.164;16.924;2023-04-15T02:33:49;30.80;42.30
21801;DHT22;11062;51.164;16.924;2023-04-15T02:36:15;30.70;42.40
21801;DHT22;11062;51.164;16.924;2023-04-15T02:38:41;30.80;42.40
21801;DHT22;11062;51.164;16.924;2023-04-15T02:41:11;30.80;42.20
21801;DHT22;11062;51.164;16.924;2023-04-15T02:43:40;30.90;42.20
21801;DHT22;11062;51.164;16.924;2023-04-15T02:46:06;30.90;42.00
21801;DHT22;11062;51.164;16.924;2023-04-15T02:48:31;30.90;41.90
21801;DHT22;11062;51.164;16.924;2023-04-15T02:51:20;30.90;41.80
21801;DHT22;11062;51.164;16.924;2023-04-15T02:53:49;30.90;41.70
21801;DHT22;11062;51.164;16.924;2023-04-15T06:59:51;24.60;40.70
21801;DHT22;11062;51.164;16.924;2023-04-15T07:02:19;25.50;40.60
21801;DHT22;11062;51.164;16.924;2023-04-15T07:18:47;25.10;39.60
21801;DHT22;11062;51.164;16.924;2023-04-15T07:22:27;25.80;39.50
21801;DHT22;11062;51.164;16.924;2023-04-15T07:25:16;25.60;39.00
21801;DHT22;11062;51.164;16.924;2023-04-15T07:27:43;26.00;39.10
21801;DHT22;11062;51.164;16.924;2023-04-15T07:30:10;25.80;38.20
21801;DHT22;11062;51.164;16.924;2023-04-15T07:32:37;26.50;39.40
21801;DHT22;11062;51.164;16.924;2023-04-15T07:35:03;27.10;38.00
21801;DHT22;11062;51.164;16.924;2023-04-15T07:37:29;27.50;37.40
21801;DHT22;11062;51.164;16.924;2023-04-15T07:39:55;27.80;36.60
21801;DHT22;11062;51.164;16.924;2023-04-15T07:42:21;27.80;36.30
21801;DHT22;11062;51.164;16.924;2023-04-15T07:44:47;28.00;35.90
21801;DHT22;11062;51.164;16.924;2023-04-15T07:47:13;27.70;35.50
21801;DHT22;11062;51.164;16.924;2023-04-15T07:49:40;27.40;36.20
21801;DHT22;11062;51.164;16.924;2023-04-15T07:52:17;26.30;36.20
21801;DHT22;11062;51.164;16.924;2023-04-15T07:55:37;27.00;37.10
21801;DHT22;11062;51.164;16.924;2023-04-15T07:58:05;26.90;36.70
21801;DHT22;11062;51.164;16.924;2023-04-15T08:00:54;27.30;37.10
21801;DHT22;11062;51.164;16.924;2023-04-15T08:03:58;26.70;36.60
21801;DHT22;11062;51.164;16.924;2023-04-15T08:06:47;27.20;36.90
21801;DHT22;11062;51.164;16.924;2023-04-15T08:10:27;26.80;37.30
21801;DHT22;11062;51.164;16.924;2023-04-15T08:13:07;26.60;37.70
21801;DHT22;11062;51.164;16.924;2023-04-15T08:16:24;26.30;37.50
21801;DHT22;11062;51.164;16.924;2023-04-15T08:19:14;27.10;38.40
21801;DHT22;11062;51.164;16.924;2023-04-15T08:22:00;26.70;37.60
21801;DHT22;11062;51.164;16.924;2023-04-15T08:25:19;26.50;37.30
21801;DHT22;11062;51.164;16.924;2023-04-15T08:27:55;26.80;37.10
21801;DHT22;11062;51.164;16.924;2023-04-15T08:30:35;27.10;36.70
21801;DHT22;11062;51.164;16.924;2023-04-15T08:33:01;27.00;36.50
21801;DHT22;11062;51.164;16.924;2023-04-15T08:35:35;27.40;36.20
21801;DHT22;11062;51.164;16.924;2023-04-15T08:38:04;27.40;36.20
21801;DHT22;11062;51.164;16.924;2023-04-15T08:40:47;27.50;36.40
21801;DHT22;11062;51.164;16.924;2023-04-15T08:43:24;28.10;36.60
21801;DHT22;11062;51.164;16.924;2023-04-15T08:45:53;26.80;35.80
21801;DHT22;11062;51.164;16.924;2023-04-15T08:48:20;27.60;37.00
21801;DHT22;11062;51.164;16.924;2023-04-15T08:50:50;27.70;36.10
21801;DHT22;11062;51.164;16.924;2023-04-15T08:53:17;27.90;36.20
21801;DHT22;11062;51.164;16.924;2023-04-15T08:55:46;28.10;36.20
21801;DHT22;11062;51.164;16.924;2023-04-15T08:58:15;28.30;36.20
21801;DHT22;11062;51.164;16.924;2023-04-15T09:00:42;28.40;35.60
21801;DHT22;11062;51.164;16.924;2023-04-15T09:03:08;28.50;34.70
21801;DHT22;11062;51.164;16.924;2023-04-15T09:05:37;28.20;35.40
21801;DHT22;11062;51.164;16.924;2023-04-15T09:08:04;27.60;35.60
21801;DHT22;11062;51.164;16.924;2023-04-15T09:10:31;28.10;36.00
21801;DHT22;11062;51.164;16.924;2023-04-15T09:12:57;28.40;35.50
21801;DHT22;11062;51.164;16.924;2023-04-15T09:15:27;28.50;36.10
21801;DHT22;11062;51.164;16.924;2023-04-15T09:17:55;28.00;35.30
21801;DHT22;11062;51.164;16.924;2023-04-15T09:20:23;28.80;36.10
21801;DHT22;11062;51.164;16.924;2023-04-15T09:22:59;29.00;35.10
21801;DHT22;11062;51.164;16.924;2023-04-15T09:25:38;29.10;35.20
21801;DHT22;11062;51.164;16.924;2023-04-15T09:28:31;28.90;34.60
21801;DHT22;11062;51.164;16.924;2023-04-15T09:31:02;29.10;35.70
21801;DHT22;11062;51.164;16.924;2023-04-15T09:33:40;29.40;36.70
21801;DHT22;11062;51.164;16.924;2023-04-15T09:36:22;27.60;34.70
21801;DHT22;11062;51.164;16.924;2023-04-15T09:39:11;28.30;36.50
21801;DHT22;11062;51.164;16.924;2023-04-15T09:41:44;29.20;35.80
21801;DHT22;11062;51.164;16.924;2023-04-15T09:44:23;28.00;37.00
21801;DHT22;11062;51.164;16.924;2023-04-15T09:46:50;27.50;37.30
21801;DHT22;11062;51.164;16.924;2023-04-15T09:49:18;26.80;37.80
21801;DHT22;11062;51.164;16.924;2023-04-15T09:51:45;26.30;38.00
21801;DHT22;11062;51.164;16.924;2023-04-15T09:54:20;25.90;38.10
21801;DHT22;11062;51.164;16.924;2023-04-15T09:56:46;28.50;38.80
21801;DHT22;11062;51.164;16.924;2023-04-15T09:59:13;28.00;37.40
21801;DHT22;11062;51.164;16.924;2023-04-15T10:01:40;28.80;37.60
21801;DHT22;11062;51.164;16.924;2023-04-15T10:04:08;27.50;34.40
21801;DHT22;11062;51.164;16.924;2023-04-15T10:06:38;29.30;34.60
21801;DHT22;11062;51.164;16.924;2023-04-15T10:11:35;29.70;32.80
21801;DHT22;11062;51.164;16.924;2023-04-15T10:14:04;29.40;33.90
21801;DHT22;11062;51.164;16.924;2023-04-15T10:16:31;29.20;33.40
21801;DHT22;11062;51.164;16.924;2023-04-15T10:19:00;29.20;32.30
21801;DHT22;11062;51.164;16.924;2023-04-15T10:21:27;29.00;32.80
21801;DHT22;11062;51.164;16.924;2023-04-15T10:31:14;29.50;33.30
21801;DHT22;11062;51.164;16.924;2023-04-15T10:33:43;29.10;32.90
21801;DHT22;11062;51.164;16.924;2023-04-15T10:38:44;29.50;33.20
21801;DHT22;11062;51.164;16.924;2023-04-15T10:41:16;29.90;33.10
21801;DHT22;11062;51.164;16.924;2023-04-15T10:46:21;29.30;35.10
21801;DHT22;11062;51.164;16.924;2023-04-15T10:48:52;29.80;32.50
21801;DHT22;11062;51.164;16.924;2023-04-15T10:51:29;28.00;33.30
21801;DHT22;11062;51.164;16.924;2023-04-15T10:53:56;29.50;33.60
21801;DHT22;11062;51.164;16.924;2023-04-15T10:56:26;30.90;33.50
21801;DHT22;11062;51.164;16.924;2023-04-15T10:58:57;31.20;32.10
21801;DHT22;11062;51.164;16.924;2023-04-15T11:01:52;31.50;31.20
21801;DHT22;11062;51.164;16.924;2023-04-15T11:04:55;32.20;32.00
21801;DHT22;11062;51.164;16.924;2023-04-15T11:07:46;31.80;32.00
21801;DHT22;11062;51.164;16.924;2023-04-15T11:15:38;29.90;33.30
21801;DHT22;11062;51.164;16.924;2023-04-15T11:18:15;30.60;30.70
21801;DHT22;11062;51.164;16.924;2023-04-15T11:20:52;29.30;31.90
21801;DHT22;11062;51.164;16.924;2023-04-15T11:26:13;28.50;29.90
21801;DHT22;11062;51.164;16.924;2023-04-15T11:28:44;29.80;35.20
21801;DHT22;11062;51.164;16.924;2023-04-15T11:31:12;30.90;33.30
21801;DHT22;11062;51.164;16.924;2023-04-15T11:33:45;29.40;31.00
21801;DHT22;11062;51.164;16.924;2023-04-15T11:36:15;29.40;30.90
21801;DHT22;11062;51.164;16.924;2023-04-15T11:38:46;32.30;31.30
21801;DHT22;11062;51.164;16.924;2023-04-15T11:41:12;31.00;32.50
21801;DHT22;11062;51.164;16.924;2023-04-15T11:46:04;30.80;29.90
21801;DHT22;11062;51.164;16.924;2023-04-15T11:48:34;31.20;34.10
21801;DHT22;11062;51.164;16.924;2023-04-15T11:51:04;31.00;31.30
21801;DHT22;11062;51.164;16.924;2023-04-15T11:53:45;31.50;31.80
21801;DHT22;11062;51.164;16.924;2023-04-15T11:56:22;29.50;30.70
21801;DHT22;11062;51.164;16.924;2023-04-15T11:58:52;32.20;31.90
21801;DHT22;11062;51.164;16.924;2023-04-15T12:01:18;31.20;30.60
21801;DHT22;11062;51.164;16.924;2023-04-15T12:03:45;30.60;30.20
21801;DHT22;11062;51.164;16.924;2023-04-15T12:14:09;32.30;30.00
21801;DHT22;11062;51.164;16.924;2023-04-15T12:16:39;32.50;29.80
21801;DHT22;11062;51.164;16.924;2023-04-15T12:19:09;32.40;30.80
21801;DHT22;11062;51.164;16.924;2023-04-15T12:21:38;30.80;29.50
21801;DHT22;11062;51.164;16.924;2023-04-15T12:24:06;31.00;29.80
21801;DHT22;11062;51.164;16.924;2023-04-15T12:26:46;31.00;30.00
21801;DHT22;11062;51.164;16.924;2023-04-15T12:29:16;30.90;29.70
21801;DHT22;11062;51.164;16.924;2023-04-15T12:31:55;30.90;29.10
21801;DHT22;11062;51.164;16.924;2023-04-15T12:34:30;31.80;29.50
21801;DHT22;11062;51.164;16.924;2023-04-15T12:36:57;32.90;29.30
21801;DHT22;11062;51.164;16.924;2023-04-15T12:39:25;32.40;29.60
21801;DHT22;11062;51.164;16.924;2023-04-15T12:41:54;34.70;30.50
21801;DHT22;11062;51.164;16.924;2023-04-15T12:44:22;31.30;28.90
21801;DHT22;11062;51.164;16.924;2023-04-15T12:46:52;33.10;30.10
21801;DHT22;11062;51.164;16.924;2023-04-15T12:49:19;31.70;29.70
21801;DHT22;11062;51.164;16.924;2023-04-15T12:51:51;32.80;30.20
21801;DHT22;11062;51.164;16.924;2023-04-15T12:54:17;32.90;30.00
21801;DHT22;11062;51.164;16.924;2023-04-15T12:56:47;31.60;30.00
21801;DHT22;11062;51.164;16.924;2023-04-15T12:59:37;33.20;30.60
21801;DHT22;11062;51.164;16.924;2023-04-15T13:02:04;32.40;29.70
21801;DHT22;11062;51.164;16.924;2023-04-15T13:04:30;33.70;31.80
21801;DHT22;11062;51.164;16.924;2023-04-15T13:07:07;33.40;29.40
21801;DHT22;11062;51.164;16.924;2023-04-15T13:13:07;32.50;28.10
21801;DHT22;11062;51.164;16.924;2023-04-15T13:15:35;33.40;29.20
21801;DHT22;11062;51.164;16.924;2023-04-15T13:18:06;32.90;30.10
21801;DHT22;11062;51.164;16.924;2023-04-15T13:20:34;33.80;29.90
21801;DHT22;11062;51.164;16.924;2023-04-15T13:23:00;33.80;30.10
21801;DHT22;11062;51.164;16.924;2023-04-15T13:25:26;33.80;30.80
21801;DHT22;11062;51.164;16.924;2023-04-15T13:27:52;32.60;30.90
21801;DHT22;11062;51.164;16.924;2023-04-15T13:30:22;31.40;29.40
21801;DHT22;11062;51.164;16.924;2023-04-15T13:32:49;32.60;30.90
21801;DHT22;11062;51.164;16.924;2023-04-15T13:35:15;33.00;29.70
21801;DHT22;11062;51.164;16.924;2023-04-15T13:37:41;33.20;29.60
21801;DHT22;11062;51.164;16.924;2023-04-15T13:40:08;33.20;29.20
21801;DHT22;11062;51.164;16.924;2023-04-15T13:42:34;33.40;29.60
21801;DHT22;11062;51.164;16.924;2023-04-15T13:45:01;33.20;29.80
21801;DHT22;11062;51.164;16.924;2023-04-15T13:47:27;33.70;29.90
21801;DHT22;11062;51.164;16.924;2023-04-15T13:49:55;33.90;29.70
21801;DHT22;11062;51.164;16.924;2023-04-15T13:52:22;34.10;29.60
21801;DHT22;11062;51.164;16.924;2023-04-15T13:54:48;33.80;28.50
21801;DHT22;11062;51.164;16.924;2023-04-15T13:57:15;35.00;29.50
21801;DHT22;11062;51.164;16.924;2023-04-15T13:59:41;33.80;28.50
21801;DHT22;11062;51.164;16.924;2023-04-15T14:02:08;35.60;28.20
21801;DHT22;11062;51.164;16.924;2023-04-15T14:04:35;35.40;26.90
21801;DHT22;11062;51.164;16.924;2023-04-15T14:07:04;36.60;28.10
21801;DHT22;11062;51.164;16.924;2023-04-15T14:09:34;37.20;27.80
21801;DHT22;11062;51.164;16.924;2023-04-15T14:12:05;36.10;27.00
21801;DHT22;11062;51.164;16.924;2023-04-15T14:14:31;36.60;27.30
21801;DHT22;11062;51.164;16.924;2023-04-15T14:16:57;36.80;27.80
21801;DHT22;11062;51.164;16.924;2023-04-15T14:19:26;36.60;26.50
21801;DHT22;11062;51.164;16.924;2023-04-15T14:21:54;37.40;27.40
21801;DHT22;11062;51.164;16.924;2023-04-15T14:24:24;37.50;26.70
21801;DHT22;11062;51.164;16.924;2023-04-15T14:26:56;37.50;27.60
21801;DHT22;11062;51.164;16.924;2023-04-15T14:29:22;36.20;26.30
21801;DHT22;11062;51.164;16.924;2023-04-15T14:31:54;37.10;27.50
21801;DHT22;11062;51.164;16.924;2023-04-15T14:34:23;36.90;26.80
21801;DHT22;11062;51.164;16.924;2023-04-15T14:36:50;37.30;27.80
21801;DHT22;11062;51.164;16.924;2023-04-15T14:39:30;36.10;27.20
21801;DHT22;11062;51.164;16.924;2023-04-15T14:41:57;36.20;26.60
21801;DHT22;11062;51.164;16.924;2023-04-15T14:44:23;36.00;27.70
21801;DHT22;11062;51.164;16.924;2023-04-15T14:46:50;35.10;27.90
21801;DHT22;11062;51.164;16.924;2023-04-15T14:49:19;34.80;27.50
21801;DHT22;11062;51.164;16.924;2023-04-15T14:51:45;35.10;29.40
21801;DHT22;11062;51.164;16.924;2023-04-15T14:54:11;36.60;29.30
21801;DHT22;11062;51.164;16.924;2023-04-15T14:56:37;34.90;28.30
21801;DHT22;11062;51.164;16.924;2023-04-15T14:59:03;35.60;29.20
21801;DHT22;11062;51.164;16.924;2023-04-15T15:01:30;35.40;29.40
21801;DHT22;11062;51.164;16.924;2023-04-15T15:03:58;35.60;28.80
21801;DHT22;11062;51.164;16.924;2023-04-15T15:06:27;35.40;28.40
21801;DHT22;11062;51.164;16.924;2023-04-15T15:08:58;35.20;28.80
21801;DHT22;11062;51.164;16.924;2023-04-15T15:11:28;35.60;27.50
21801;DHT22;11062;51.164;16.924;2023-04-15T15:13:54;35.60;28.20
21801;DHT22;11062;51.164;16.924;2023-04-15T15:16:21;36.60;28.90
21801;DHT22;11062;51.164;16.924;2023-04-15T15:18:48;34.50;28.90
21801;DHT22;11062;51.164;16.924;2023-04-15T15:21:17;34.10;27.60
21801;DHT22;11062;51.164;16.924;2023-04-15T15:23:43;34.70;28.30
21801;DHT22;11062;51.164;16.924;2023-04-15T15:26:13;34.40;28.60
21801;DHT22;11062;51.164;16.924;2023-04-15T15:28:39;34.10;29.60
21801;DHT22;11062;51.164;16.924;2023-04-15T15:31:06;33.80;29.50
21801;DHT22;11062;51.164;16.924;2023-04-15T15:33:32;33.90;30.60
21801;DHT22;11062;51.164;16.924;2023-04-15T15:35:58;34.10;30.40
21801;DHT22;11062;51.164;16.924;2023-04-15T15:38:24;33.90;29.70
21801;DHT22;11062;51.164;16.924;2023-04-15T15:40:53;34.40;28.80
21801;DHT22;11062;51.164;16.924;2023-04-15T15:43:19;33.80;27.60
21801;DHT22;11062;51.164;16.924;2023-04-15T15:45:45;32.70;28.50
21801;DHT22;11062;51.164;16.924;2023-04-15T15:48:11;34.40;29.10
21801;DHT22;11062;51.164;16.924;2023-04-15T15:50:38;34.40;29.10
21801;DHT22;11062;51.164;16.924;2023-04-15T15:53:04;34.10;29.00
21801;DHT22;11062;51.164;16.924;2023-04-15T15:55:30;34.40;28.80
21801;DHT22;11062;51.164;16.924;2023-04-15T15:57:56;34.00;29.60
21801;DHT22;11062;51.164;16.924;2023-04-15T16:00:22;33.90;28.80
21801;DHT22;11062;51.164;16.924;2023-04-15T16:02:48;32.50;30.30
21801;DHT22;11062;51.164;16.924;2023-04-15T16:05:14;33.90;31.20
21801;DHT22;11062;51.164;16.924;2023-04-15T16:07:40;34.20;29.80
21801;DHT22;11062;51.164;16.924;2023-04-15T16:10:11;34.20;30.00
21801;DHT22;11062;51.164;16.924;2023-04-15T16:12:43;34.40;29.80
21801;DHT22;11062;51.164;16.924;2023-04-15T16:15:09;33.20;28.70
21801;DHT22;11062;51.164;16.924;2023-04-15T16:17:36;33.50;28.50
21801;DHT22;11062;51.164;16.924;2023-04-15T16:20:02;32.80;29.10
21801;DHT22;11062;51.164;16.924;2023-04-15T16:22:35;32.80;28.40
21801;DHT22;11062;51.164;16.924;2023-04-15T16:25:01;33.80;29.30
21801;DHT22;11062;51.164;16.924;2023-04-15T16:27:31;33.20;29.50
21801;DHT22;11062;51.164;16.924;2023-04-15T16:29:58;33.70;30.00
21801;DHT22;11062;51.164;16.924;2023-04-15T16:32:24;33.60;29.90
21801;DHT22;11062;51.164;16.924;2023-04-15T16:34:51;33.80;30.00
21801;DHT22;11062;51.164;16.924;2023-04-15T16:37:18;35.40;31.80
21801;DHT22;11062;51.164;16.924;2023-04-15T16:39:45;33.70;29.60
21801;DHT22;11062;51.164;16.924;2023-04-15T16:42:11;33.60;29.50
21801;DHT22;11062;51.164;16.924;2023-04-15T16:44:37;34.50;30.40
21801;DHT22;11062;51.164;16.924;2023-04-15T16:47:06;34.90;30.60
21801;DHT22;11062;51.164;16.924;2023-04-15T16:49:34;33.30;29.20
21801;DHT22;11062;51.164;16.924;2023-04-15T16:52:12;33.10;30.80
21801;DHT22;11062;51.164;16.924;2023-04-15T16:57:12;32.90;29.50
21801;DHT22;11062;51.164;16.924;2023-04-15T16:59:38;34.60;32.50
21801;DHT22;11062;51.164;16.924;2023-04-15T17:02:04;32.90;29.90
21801;DHT22;11062;51.164;16.924;2023-04-15T17:04:30;33.00;30.30
21801;DHT22;11062;51.164;16.924;2023-04-15T17:06:56;33.00;30.20
21801;DHT22;11062;51.164;16.924;2023-04-15T17:09:21;33.00;30.10
21801;DHT22;11062;51.164;16.924;2023-04-15T17:11:47;33.10;30.00
21801;DHT22;11062;51.164;16.924;2023-04-15T17:14:13;33.10;31.10
21801;DHT22;11062;51.164;16.924;2023-04-15T17:16:39;33.20;30.80
21801;DHT22;11062;51.164;16.924;2023-04-15T17:19:06;33.20;31.20
21801;DHT22;11062;51.164;16.924;2023-04-15T17:21:33;33.20;31.70
21801;DHT22;11062;51.164;16.924;2023-04-15T17:23:59;33.30;31.00
21801;DHT22;11062;51.164;16.924;2023-04-15T17:26:25;33.20;31.10
21801;DHT22;11062;51.164;16.924;2023-04-15T17:28:51;33.40;30.70
21801;DHT22;11062;51.164;16.924;2023-04-15T17:31:17;33.30;30.90
21801;DHT22;11062;51.164;16.924;2023-04-15T17:33:43;34.60;32.00
21801;DHT22;11062;51.164;16.924;2023-04-15T17:36:09;33.20;31.20
21801;DHT22;11062;51.164;16.924;2023-04-15T17:38:35;33.20;31.00
21801;DHT22;11062;51.164;16.924;2023-04-15T17:41:01;33.10;31.10
21801;DHT22;11062;51.164;16.924;2023-04-15T17:43:27;33.00;31.10
21801;DHT22;11062;51.164;16.924;2023-04-15T17:45:55;32.90;32.20
21801;DHT22;11062;51.164;16.924;2023-04-15T17:48:21;32.90;31.40
21801;DHT22;11062;51.164;16.924;2023-04-15T17:53:25;32.80;30.80
21801;DHT22;11062;51.164;16.924;2023-04-15T17:55:51;33.00;32.80
21801;DHT22;11062;51.164;16.924;2023-04-15T17:58:19;32.60;32.20
21801;DHT22;11062;51.164;16.924;2023-04-15T18:03:13;32.50;30.90
21801;DHT22;11062;51.164;16.924;2023-04-15T18:05:39;31.70;32.00
21801;DHT22;11062;51.164;16.924;2023-04-15T18:08:06;32.40;31.60
21801;DHT22;11062;51.164;16.924;2023-04-15T18:10:37;32.30;31.70
21801;DHT22;11062;51.164;16.924;2023-04-15T18:13:04;31.60;32.30
21801;DHT22;11062;51.164;16.924;2023-04-15T18:15:33;32.50;33.60
21801;DHT22;11062;51.164;16.924;2023-04-15T18:18:01;30.20;32.60
21801;DHT22;11062;51.164;16.924;2023-04-15T18:20:30;30.30;32.80
21801;DHT22;11062;51.164;16.924;2023-04-15T18:22:58;32.20;34.70
21801;DHT22;11062;51.164;16.924;2023-04-15T18:25:24;31.90;34.90
21801;DHT22;11062;51.164;16.924;2023-04-15T18:27:51;30.70;34.00
21801;DHT22;11062;51.164;16.924;2023-04-15T18:30:17;31.80;36.10
21801;DHT22;11062;51.164;16.924;2023-04-15T18:32:43;32.00;36.90
21801;DHT22;11062;51.164;16.924;2023-04-15T18:35:18;30.40;34.50
21801;DHT22;11062;51.164;16.924;2023-04-15T18:37:45;31.70;35.70
21801;DHT22;11062;51.164;16.924;2023-04-15T18:40:14;31.90;35.90
21801;DHT22;11062;51.164;16.924;2023-04-15T18:42:41;30.70;35.60
21801;DHT22;11062;51.164;16.924;2023-04-15T18:45:31;31.90;36.30
21801;DHT22;11062;51.164;16.924;2023-04-15T18:48:01;31.20;35.70
21801;DHT22;11062;51.164;16.924;2023-04-15T18:50:27;33.60;37.60
21801;DHT22;11062;51.164;16.924;2023-04-15T18:53:03;31.90;37.10
21801;DHT22;11062;51.164;16.924;2023-04-15T18:55:40;32.00;37.00
21801;DHT22;11062;51.164;16.924;2023-04-15T18:58:26;32.00;35.90
21801;DHT22;11062;51.164;16.924;2023-04-15T19:00:58;31.80;38.10
21801;DHT22;11062;51.164;16.924;2023-04-15T19:03:27;31.30;35.60
21801;DHT22;11062;51.164;16.924;2023-04-15T19:05:58;31.00;35.60
21801;DHT22;11062;51.164;16.924;2023-04-15T19:08:49;31.90;36.30
21801;DHT22;11062;51.164;16.924;2023-04-15T19:11:17;31.60;37.10
21801;DHT22;11062;51.164;16.924;2023-04-15T19:13:44;30.80;36.60
21801;DHT22;11062;51.164;16.924;2023-04-15T19:18:52;31.90;36.20
21801;DHT22;11062;51.164;16.924;2023-04-15T19:21:21;31.10;37.80
21801;DHT22;11062;51.164;16.924;2023-04-15T19:23:47;30.20;36.60
21801;DHT22;11062;51.164;16.924;2023-04-15T19:26:17;30.00;36.10
21801;DHT22;11062;51.164;16.924;2023-04-15T19:28:43;30.70;36.60
21801;DHT22;11062;51.164;16.924;2023-04-15T19:31:13;31.40;38.60
21801;DHT22;11062;51.164;16.924;2023-04-15T19:33:41;32.60;38.40
21801;DHT22;11062;51.164;16.924;2023-04-15T19:36:11;30.00;37.70
21801;DHT22;11062;51.164;16.924;2023-04-15T19:38:38;32.00;38.00
21801;DHT22;11062;51.164;16.924;2023-04-15T19:41:04;31.70;37.70
21801;DHT22;11062;51.164;16.924;2023-04-15T19:43:33;31.80;38.40
21801;DHT22;11062;51.164;16.924;2023-04-15T19:46:21;31.20;36.50
21801;DHT22;11062;51.164;16.924;2023-04-15T19:49:10;30.30;36.90
21801;DHT22;11062;51.164;16.924;2023-04-15T19:52:02;30.40;37.00
21801;DHT22;11062;51.164;16.924;2023-04-15T19:55:09;33.60;39.20
21801;DHT22;11062;51.164;16.924;2023-04-15T19:58:06;30.40;36.20
21801;DHT22;11062;51.164;16.924;2023-04-15T20:00:46;30.70;37.40
21801;DHT22;11062;51.164;16.924;2023-04-15T20:03:16;31.80;38.30
21801;DHT22;11062;51.164;16.924;2023-04-15T20:05:48;31.30;38.10
21801;DHT22;11062;51.164;16.924;2023-04-15T20:08:25;31.90;38.00
21801;DHT22;11062;51.164;16.924;2023-04-15T20:10:51;30.60;39.00
21801;DHT22;11062;51.164;16.924;2023-04-15T20:13:17;31.40;38.70
21801;DHT22;11062;51.164;16.924;2023-04-15T20:15:43;31.30;39.30
21801;DHT22;11062;51.164;16.924;2023-04-15T20:18:09;31.40;38.00
21801;DHT22;11062;51.164;16.924;2023-04-15T20:20:37;31.30;39.10
21801;DHT22;11062;51.164;16.924;2023-04-15T20:23:04;31.30;38.30
21801;DHT22;11062;51.164;16.924;2023-04-15T20:25:30;31.40;38.80
21801;DHT22;11062;51.164;16.924;2023-04-15T20:27:56;31.20;39.00
21801;DHT22;11062;51.164;16.924;2023-04-15T20:30:23;33.70;40.00
21801;DHT22;11062;51.164;16.924;2023-04-15T20:32:53;31.60;38.90
21801;DHT22;11062;51.164;16.924;2023-04-15T20:35:19;31.40;38.90
21801;DHT22;11062;51.164;16.924;2023-04-15T20:37:48;30.20;38.30
21801;DHT22;11062;51.164;16.924;2023-04-15T20:40:14;31.20;38.70